sensor_id;sensor_type;location;lat;lon;timestamp;P1;durP1;ratioP1;P2;durP2;ratioP2
49590;SDS011;35496;-21.974;-46.800;2022-07-23T00:01:04;6.05;;;4.22;;
49590;SDS011;35496;-21.974;-46.800;2022-07-23T00:03:30;6.97;;;4.50;;
49590;SDS011;35496;-21.974;-46.800;2022-07-23T00:05:56;9.43;;;4.30;;
49590;SDS011;35496;-21.974;-46.800;2022-07-23T00:08:23;13.25;;;5.10;;
49590;SDS011;35496;-21.974;-46.800;2022-07-23T00:10:49;7.45;;;4.60;;
49590;SDS011;35496;-21.974;-46.800;2022-07-23T00:13:15;7.82;;;3.42;;
49590;SDS011;35496;-21.974;-46.800;2022-07-23T00:15:41;11.20;;;4.50;;
49590;SDS011;35496;-21.974;-46.800;2022-07-23T00:18:07;7.25;;;4.30;;
49590;SDS011;35496;-21.974;-46.800;2022-07-23T00:20:33;11.73;;;4.18;;
49590;SDS011;35496;-21.974;-46.800;2022-07-23T00:22:59;9.15;;;5.00;;
49590;SDS011;35496;-21.974;-46.800;2022-07-23T00:25:26;7.53;;;4.38;;
49590;SDS011;35496;-21.974;-46.800;2022-07-23T00:27:52;7.57;;;4.68;;
49590;SDS011;35496;-21.974;-46.800;2022-07-23T00:30:18;13.85;;;4.82;;
49590;SDS011;35496;-21.974;-46.800;2022-07-23T00:32:52;12.55;;;4.57;;
49590;SDS011;35496;-21.974;-46.800;2022-07-23T00:35:20;8.13;;;3.38;;
49590;SDS011;35496;-21.974;-46.800;2022-07-23T00:37:46;8.50;;;3.42;;
49590;SDS011;35496;-21.974;-46.800;2022-07-23T00:40:13;9.95;;;4.45;;
49590;SDS011;35496;-21.974;-46.800;2022-07-23T00:42:39;6.38;;;4.25;;
49590;SDS011;35496;-21.974;-46.800;2022-07-23T00:45:06;7.35;;;4.38;;
49590;SDS011;35496;-21.974;-46.800;2022-07-23T00:47:32;6.30;;;3.47;;
49590;SDS011;35496;-21.974;-46.800;2022-07-23T00:49:58;7.90;;;4.20;;
49590;SDS011;35496;-21.974;-46.800;2022-07-23T00:52:25;4.63;;;3.55;;
49590;SDS011;35496;-21.974;-46.800;2022-07-23T00:54:51;13.05;;;4.65;;
49590;SDS011;35496;-21.974;-46.800;2022-07-23T00:57:17;10.20;;;5.07;;
49590;SDS011;35496;-21.974;-46.800;2022-07-23T00:59:44;5.47;;;3.97;;
49590;SDS011;35496;-21.974;-46.800;2022-07-23T01:02:10;5.28;;;4.45;;
49590;SDS011;35496;-21.974;-46.800;2022-07-23T01:04:36;7.63;;;4.70;;
49590;SDS011;35496;-21.974;-46.800;2022-07-23T01:07:02;12.77;;;5.57;;
49590;SDS011;35496;-21.974;-46.800;2022-07-23T01:09:28;15.55;;;4.05;;
49590;SDS011;35496;-21.974;-46.800;2022-07-23T01:11:54;8.77;;;5.63;;
49590;SDS011;35496;-21.974;-46.800;2022-07-23T01:14:21;9.93;;;5.57;;
49590;SDS011;35496;-21.974;-46.800;2022-07-23T01:16:47;9.57;;;6.15;;
49590;SDS011;35496;-21.974;-46.800;2022-07-23T01:19:14;7.32;;;5.00;;
49590;SDS011;35496;-21.974;-46.800;2022-07-23T01:21:41;7.43;;;3.83;;
49590;SDS011;35496;-21.974;-46.800;2022-07-23T01:24:08;6.57;;;4.80;;
49590;SDS011;35496;-21.974;-46.800;2022-07-23T01:26:35;13.07;;;5.57;;
49590;SDS011;35496;-21.974;-46.800;2022-07-23T01:29:01;11.35;;;5.93;;
49590;SDS011;35496;-21.974;-46.800;2022-07-23T01:31:28;7.55;;;5.50;;
49590;SDS011;35496;-21.974;-46.800;2022-07-23T01:33:54;12.73;;;5.93;;
49590;SDS011;35496;-21.974;-46.800;2022-07-23T01:36:20;17.90;;;6.50;;
49590;SDS011;35496;-21.974;-46.800;2022-07-23T01:38:46;10.15;;;5.95;;
49590;SDS011;35496;-21.974;-46.800;2022-07-23T01:41:12;10.15;;;5.57;;
49590;SDS011;35496;-21.974;-46.800;2022-07-23T01:43:39;12.23;;;5.25;;
49590;SDS011;35496;-21.974;-46.800;2022-07-23T01:46:05;14.73;;;6.78;;
49590;SDS011;35496;-21.974;-46.800;2022-07-23T01:48:31;9.05;;;5.78;;
49590;SDS011;35496;-21.974;-46.800;2022-07-23T01:50:57;12.23;;;5.85;;
49590;SDS011;35496;-21.974;-46.800;2022-07-23T01:53:23;13.10;;;5.47;;
49590;SDS011;35496;-21.974;-46.800;2022-07-23T01:55:49;11.50;;;5.70;;
49590;SDS011;35496;-21.974;-46.800;2022-07-23T01:58:15;9.45;;;5.15;;
49590;SDS011;35496;-21.974;-46.800;2022-07-23T02:00:41;8.15;;;5.45;;
49590;SDS011;35496;-21.974;-46.800;2022-07-23T02:03:08;9.20;;;5.38;;
49590;SDS011;35496;-21.974;-46.800;2022-07-23T02:05:34;10.43;;;5.00;;
49590;SDS011;35496;-21.974;-46.800;2022-07-23T02:08:00;11.38;;;5.35;;
49590;SDS011;35496;-21.974;-46.800;2022-07-23T02:10:26;7.07;;;5.30;;
49590;SDS011;35496;-21.974;-46.800;2022-07-23T02:12:53;9.95;;;5.18;;
49590;SDS011;35496;-21.974;-46.800;2022-07-23T02:15:19;9.35;;;5.32;;
49590;SDS011;35496;-21.974;-46.800;2022-07-23T02:17:45;9.05;;;5.45;;
49590;SDS011;35496;-21.974;-46.800;2022-07-23T02:20:11;10.73;;;5.38;;
49590;SDS011;35496;-21.974;-46.800;2022-07-23T02:22:38;9.40;;;4.85;;
49590;SDS011;35496;-21.974;-46.800;2022-07-23T02:25:04;17.05;;;6.00;;
49590;SDS011;35496;-21.974;-46.800;2022-07-23T02:27:31;9.88;;;4.57;;
49590;SDS011;35496;-21.974;-46.800;2022-07-23T02:29:57;5.88;;;4.20;;
49590;SDS011;35496;-21.974;-46.800;2022-07-23T02:32:23;12.65;;;5.63;;
49590;SDS011;35496;-21.974;-46.800;2022-07-23T02:34:50;7.88;;;4.50;;
49590;SDS011;35496;-21.974;-46.800;2022-07-23T02:37:16;9.00;;;4.57;;
49590;SDS011;35496;-21.974;-46.800;2022-07-23T02:39:43;11.30;;;4.82;;
49590;SDS011;35496;-21.974;-46.800;2022-07-23T02:42:09;12.00;;;4.75;;
49590;SDS011;35496;-21.974;-46.800;2022-07-23T02:44:35;10.52;;;4.70;;
49590;SDS011;35496;-21.974;-46.800;2022-07-23T02:47:01;7.88;;;4.55;;
49590;SDS011;35496;-21.974;-46.800;2022-07-23T02:49:27;19.88;;;6.13;;
49590;SDS011;35496;-21.974;-46.800;2022-07-23T02:51:53;7.78;;;4.70;;
49590;SDS011;35496;-21.974;-46.800;2022-07-23T02:54:19;9.82;;;4.63;;
49590;SDS011;35496;-21.974;-46.800;2022-07-23T02:56:45;25.85;;;7.82;;
49590;SDS011;35496;-21.974;-46.800;2022-07-23T02:59:11;11.82;;;5.97;;
49590;SDS011;35496;-21.974;-46.800;2022-07-23T03:01:38;9.95;;;5.22;;
49590;SDS011;35496;-21.974;-46.800;2022-07-23T03:04:04;12.35;;;5.60;;
49590;SDS011;35496;-21.974;-46.800;2022-07-23T03:06:30;13.18;;;5.20;;
49590;SDS011;35496;-21.974;-46.800;2022-07-23T03:08:56;12.85;;;4.32;;
49590;SDS011;35496;-21.974;-46.800;2022-07-23T03:11:22;10.40;;;3.85;;
49590;SDS011;35496;-21.974;-46.800;2022-07-23T03:13:48;8.80;;;4.88;;
49590;SDS011;35496;-21.974;-46.800;2022-07-23T03:16:14;12.95;;;4.25;;
49590;SDS011;35496;-21.974;-46.800;2022-07-23T03:18:40;11.32;;;5.30;;
49590;SDS011;35496;-21.974;-46.800;2022-07-23T03:21:07;11.38;;;4.63;;
49590;SDS011;35496;-21.974;-46.800;2022-07-23T03:23:33;15.13;;;4.65;;
49590;SDS011;35496;-21.974;-46.800;2022-07-23T03:25:59;19.70;;;5.75;;
49590;SDS011;35496;-21.974;-46.800;2022-07-23T03:28:25;10.90;;;4.57;;
49590;SDS011;35496;-21.974;-46.800;2022-07-23T03:30:51;10.07;;;4.78;;
49590;SDS011;35496;-21.974;-46.800;2022-07-23T03:33:18;8.50;;;5.00;;
49590;SDS011;35496;-21.974;-46.800;2022-07-23T03:35:45;13.77;;;4.55;;
49590;SDS011;35496;-21.974;-46.800;2022-07-23T03:38:12;9.18;;;6.18;;
49590;SDS011;35496;-21.974;-46.800;2022-07-23T03:40:38;10.00;;;4.57;;
49590;SDS011;35496;-21.974;-46.800;2022-07-23T03:43:05;14.65;;;5.40;;
49590;SDS011;35496;-21.974;-46.800;2022-07-23T03:45:31;8.55;;;4.75;;
49590;SDS011;35496;-21.974;-46.800;2022-07-23T03:47:57;12.23;;;4.97;;
49590;SDS011;35496;-21.974;-46.800;2022-07-23T03:50:23;10.95;;;4.88;;
49590;SDS011;35496;-21.974;-46.800;2022-07-23T03:52:49;12.18;;;4.45;;
49590;SDS011;35496;-21.974;-46.800;2022-07-23T03:55:16;10.00;;;5.30;;
49590;SDS011;35496;-21.974;-46.800;2022-07-23T03:57:42;13.18;;;5.25;;
49590;SDS011;35496;-21.974;-46.800;2022-07-23T04:00:09;12.18;;;5.05;;
49590;SDS011;35496;-21.974;-46.800;2022-07-23T04:02:36;5.88;;;3.78;;
49590;SDS011;35496;-21.974;-46.800;2022-07-23T04:05:03;14.48;;;4.65;;
49590;SDS011;35496;-21.974;-46.800;2022-07-23T04:07:29;9.30;;;5.35;;
49590;SDS011;35496;-21.974;-46.800;2022-07-23T04:09:56;11.15;;;5.05;;
49590;SDS011;35496;-21.974;-46.800;2022-07-23T04:12:22;11.32;;;6.65;;
49590;SDS011;35496;-21.974;-46.800;2022-07-23T04:14:48;9.60;;;5.63;;
49590;SDS011;35496;-21.974;-46.800;2022-07-23T04:17:14;11.90;;;6.55;;
49590;SDS011;35496;-21.974;-46.800;2022-07-23T04:19:40;12.75;;;5.35;;
49590;SDS011;35496;-21.974;-46.800;2022-07-23T04:22:09;8.27;;;5.22;;
49590;SDS011;35496;-21.974;-46.800;2022-07-23T04:24:35;12.48;;;4.55;;
49590;SDS011;35496;-21.974;-46.800;2022-07-23T04:27:02;5.53;;;3.55;;
49590;SDS011;35496;-21.974;-46.800;2022-07-23T04:29:28;10.35;;;4.43;;
49590;SDS011;35496;-21.974;-46.800;2022-07-23T04:31:54;6.05;;;4.22;;
49590;SDS011;35496;-21.974;-46.800;2022-07-23T04:34:20;11.18;;;4.22;;
49590;SDS011;35496;-21.974;-46.800;2022-07-23T04:36:47;5.95;;;3.85;;
49590;SDS011;35496;-21.974;-46.800;2022-07-23T04:39:13;15.68;;;4.88;;
49590;SDS011;35496;-21.974;-46.800;2022-07-23T04:41:40;4.75;;;4.20;;
49590;SDS011;35496;-21.974;-46.800;2022-07-23T04:44:06;8.75;;;4.25;;
49590;SDS011;35496;-21.974;-46.800;2022-07-23T04:46:32;10.45;;;4.78;;
49590;SDS011;35496;-21.974;-46.800;2022-07-23T04:48:58;11.55;;;5.65;;
49590;SDS011;35496;-21.974;-46.800;2022-07-23T04:51:24;16.70;;;8.80;;
49590;SDS011;35496;-21.974;-46.800;2022-07-23T04:53:50;17.08;;;11.20;;
49590;SDS011;35496;-21.974;-46.800;2022-07-23T04:56:17;20.00;;;9.82;;
49590;SDS011;35496;-21.974;-46.800;2022-07-23T04:58:43;19.10;;;10.43;;
49590;SDS011;35496;-21.974;-46.800;2022-07-23T05:01:09;21.30;;;6.35;;
49590;SDS011;35496;-21.974;-46.800;2022-07-23T05:03:35;28.17;;;11.07;;
49590;SDS011;35496;-21.974;-46.800;2022-07-23T05:06:01;9.80;;;5.45;;
49590;SDS011;35496;-21.974;-46.800;2022-07-23T05:08:28;7.85;;;4.43;;
49590;SDS011;35496;-21.974;-46.800;2022-07-23T05:10:54;19.35;;;6.68;;
49590;SDS011;35496;-21.974;-46.800;2022-07-23T05:13:20;10.77;;;5.63;;
49590;SDS011;35496;-21.974;-46.800;2022-07-23T05:15:46;8.68;;;4.93;;
49590;SDS011;35496;-21.974;-46.800;2022-07-23T05:18:13;18.42;;;10.23;;
49590;SDS011;35496;-21.974;-46.800;2022-07-23T05:20:39;20.90;;;10.88;;
49590;SDS011;35496;-21.974;-46.800;2022-07-23T05:23:05;24.38;;;12.65;;
49590;SDS011;35496;-21.974;-46.800;2022-07-23T05:25:31;20.75;;;10.65;;
49590;SDS011;35496;-21.974;-46.800;2022-07-23T05:27:57;34.38;;;10.82;;
49590;SDS011;35496;-21.974;-46.800;2022-07-23T05:30:23;31.25;;;10.50;;
49590;SDS011;35496;-21.974;-46.800;2022-07-23T05:32:49;18.73;;;10.77;;
49590;SDS011;35496;-21.974;-46.800;2022-07-23T05:35:17;19.65;;;10.02;;
49590;SDS011;35496;-21.974;-46.800;2022-07-23T05:37:43;19.58;;;9.90;;
49590;SDS011;35496;-21.974;-46.800;2022-07-23T05:40:09;21.58;;;9.68;;
49590;SDS011;35496;-21.974;-46.800;2022-07-23T05:42:36;17.77;;;9.68;;
49590;SDS011;35496;-21.974;-46.800;2022-07-23T05:45:03;25.65;;;9.88;;
49590;SDS011;35496;-21.974;-46.800;2022-07-23T05:47:38;22.83;;;10.30;;
49590;SDS011;35496;-21.974;-46.800;2022-07-23T05:50:04;14.38;;;8.07;;
49590;SDS011;35496;-21.974;-46.800;2022-07-23T05:52:31;16.40;;;7.38;;
49590;SDS011;35496;-21.974;-46.800;2022-07-23T05:54:57;25.45;;;7.40;;
49590;SDS011;35496;-21.974;-46.800;2022-07-23T05:57:29;17.63;;;7.13;;
49590;SDS011;35496;-21.974;-46.800;2022-07-23T05:59:55;11.82;;;5.72;;
49590;SDS011;35496;-21.974;-46.800;2022-07-23T06:02:21;13.48;;;6.88;;
49590;SDS011;35496;-21.974;-46.800;2022-07-23T06:04:47;8.40;;;5.07;;
49590;SDS011;35496;-21.974;-46.800;2022-07-23T06:07:13;6.57;;;5.78;;
49590;SDS011;35496;-21.974;-46.800;2022-07-23T06:09:40;8.75;;;5.82;;
49590;SDS011;35496;-21.974;-46.800;2022-07-23T06:12:06;7.47;;;5.07;;
49590;SDS011;35496;-21.974;-46.800;2022-07-23T06:14:33;11.05;;;5.22;;
49590;SDS011;35496;-21.974;-46.800;2022-07-23T06:16:59;19.35;;;8.05;;
49590;SDS011;35496;-21.974;-46.800;2022-07-23T06:19:25;9.70;;;6.88;;
49590;SDS011;35496;-21.974;-46.800;2022-07-23T06:21:51;10.70;;;7.85;;
49590;SDS011;35496;-21.974;-46.800;2022-07-23T06:24:17;18.02;;;10.13;;
49590;SDS011;35496;-21.974;-46.800;2022-07-23T06:26:43;13.77;;;7.53;;
49590;SDS011;35496;-21.974;-46.800;2022-07-23T06:29:10;16.65;;;8.82;;
49590;SDS011;35496;-21.974;-46.800;2022-07-23T06:31:36;23.15;;;8.65;;
49590;SDS011;35496;-21.974;-46.800;2022-07-23T06:34:04;10.82;;;7.90;;
49590;SDS011;35496;-21.974;-46.800;2022-07-23T06:36:30;14.63;;;9.27;;
49590;SDS011;35496;-21.974;-46.800;2022-07-23T06:38:56;13.20;;;7.22;;
49590;SDS011;35496;-21.974;-46.800;2022-07-23T06:41:22;21.05;;;9.52;;
49590;SDS011;35496;-21.974;-46.800;2022-07-23T06:43:49;14.75;;;8.63;;
49590;SDS011;35496;-21.974;-46.800;2022-07-23T06:46:15;15.20;;;9.35;;
49590;SDS011;35496;-21.974;-46.800;2022-07-23T06:48:41;18.85;;;9.77;;
49590;SDS011;35496;-21.974;-46.800;2022-07-23T06:51:07;13.45;;;8.25;;
49590;SDS011;35496;-21.974;-46.800;2022-07-23T06:53:33;16.05;;;9.15;;
49590;SDS011;35496;-21.974;-46.800;2022-07-23T06:55:59;15.02;;;8.23;;
49590;SDS011;35496;-21.974;-46.800;2022-07-23T06:58:26;22.63;;;8.88;;
49590;SDS011;35496;-21.974;-46.800;2022-07-23T07:00:52;16.30;;;7.40;;
49590;SDS011;35496;-21.974;-46.800;2022-07-23T07:03:18;9.77;;;7.68;;
49590;SDS011;35496;-21.974;-46.800;2022-07-23T07:05:44;18.60;;;9.40;;
49590;SDS011;35496;-21.974;-46.800;2022-07-23T07:08:11;9.63;;;8.20;;
49590;SDS011;35496;-21.974;-46.800;2022-07-23T07:10:37;11.07;;;5.93;;
49590;SDS011;35496;-21.974;-46.800;2022-07-23T07:13:03;10.10;;;6.40;;
49590;SDS011;35496;-21.974;-46.800;2022-07-23T07:15:29;16.38;;;9.05;;
49590;SDS011;35496;-21.974;-46.800;2022-07-23T07:17:55;12.80;;;8.10;;
49590;SDS011;35496;-21.974;-46.800;2022-07-23T07:20:21;16.63;;;8.13;;
49590;SDS011;35496;-21.974;-46.800;2022-07-23T07:22:48;14.98;;;7.60;;
49590;SDS011;35496;-21.974;-46.800;2022-07-23T07:25:15;13.88;;;7.85;;
49590;SDS011;35496;-21.974;-46.800;2022-07-23T07:27:41;12.18;;;7.65;;
49590;SDS011;35496;-21.974;-46.800;2022-07-23T07:30:09;13.52;;;7.25;;
49590;SDS011;35496;-21.974;-46.800;2022-07-23T07:32:35;13.15;;;8.93;;
49590;SDS011;35496;-21.974;-46.800;2022-07-23T07:35:05;12.88;;;8.48;;
49590;SDS011;35496;-21.974;-46.800;2022-07-23T07:37:31;14.55;;;7.13;;
49590;SDS011;35496;-21.974;-46.800;2022-07-23T07:39:57;11.88;;;8.40;;
49590;SDS011;35496;-21.974;-46.800;2022-07-23T07:42:24;13.90;;;8.65;;
49590;SDS011;35496;-21.974;-46.800;2022-07-23T07:44:50;21.20;;;8.60;;
49590;SDS011;35496;-21.974;-46.800;2022-07-23T07:47:16;20.45;;;10.13;;
49590;SDS011;35496;-21.974;-46.800;2022-07-23T07:49:42;11.75;;;8.13;;
49590;SDS011;35496;-21.974;-46.800;2022-07-23T07:52:09;14.45;;;6.93;;
49590;SDS011;35496;-21.974;-46.800;2022-07-23T07:54:35;12.52;;;8.40;;
49590;SDS011;35496;-21.974;-46.800;2022-07-23T07:57:01;16.20;;;8.82;;
49590;SDS011;35496;-21.974;-46.800;2022-07-23T07:59:27;19.52;;;8.23;;
49590;SDS011;35496;-21.974;-46.800;2022-07-23T08:01:54;19.65;;;8.18;;
49590;SDS011;35496;-21.974;-46.800;2022-07-23T08:04:20;19.85;;;9.10;;
49590;SDS011;35496;-21.974;-46.800;2022-07-23T08:06:46;12.52;;;7.97;;
49590;SDS011;35496;-21.974;-46.800;2022-07-23T08:09:12;11.30;;;8.07;;
49590;SDS011;35496;-21.974;-46.800;2022-07-23T08:11:39;13.65;;;8.90;;
49590;SDS011;35496;-21.974;-46.800;2022-07-23T08:14:05;16.17;;;8.55;;
49590;SDS011;35496;-21.974;-46.800;2022-07-23T08:16:31;15.90;;;9.55;;
49590;SDS011;35496;-21.974;-46.800;2022-07-23T08:18:57;17.42;;;8.80;;
49590;SDS011;35496;-21.974;-46.800;2022-07-23T08:21:23;17.08;;;9.10;;
49590;SDS011;35496;-21.974;-46.800;2022-07-23T08:23:49;14.07;;;9.68;;
49590;SDS011;35496;-21.974;-46.800;2022-07-23T08:26:15;15.88;;;9.55;;
49590;SDS011;35496;-21.974;-46.800;2022-07-23T08:28:41;11.32;;;9.55;;
49590;SDS011;35496;-21.974;-46.800;2022-07-23T08:31:07;15.55;;;9.05;;
49590;SDS011;35496;-21.974;-46.800;2022-07-23T08:33:33;13.35;;;8.50;;
49590;SDS011;35496;-21.974;-46.800;2022-07-23T08:36:00;12.82;;;9.27;;
49590;SDS011;35496;-21.974;-46.800;2022-07-23T08:38:27;23.35;;;10.00;;
49590;SDS011;35496;-21.974;-46.800;2022-07-23T08:40:54;17.30;;;9.05;;
49590;SDS011;35496;-21.974;-46.800;2022-07-23T08:43:24;16.13;;;8.85;;
49590;SDS011;35496;-21.974;-46.800;2022-07-23T08:45:51;15.82;;;11.10;;
49590;SDS011;35496;-21.974;-46.800;2022-07-23T08:48:22;22.65;;;8.90;;
49590;SDS011;35496;-21.974;-46.800;2022-07-23T08:50:49;14.95;;;9.50;;
49590;SDS011;35496;-21.974;-46.800;2022-07-23T08:53:16;16.75;;;10.55;;
49590;SDS011;35496;-21.974;-46.800;2022-07-23T08:55:43;18.58;;;10.73;;
49590;SDS011;35496;-21.974;-46.800;2022-07-23T08:58:09;28.77;;;12.07;;
49590;SDS011;35496;-21.974;-46.800;2022-07-23T09:00:36;14.90;;;10.88;;
49590;SDS011;35496;-21.974;-46.800;2022-07-23T09:03:02;13.95;;;10.23;;
49590;SDS011;35496;-21.974;-46.800;2022-07-23T09:05:28;19.60;;;13.25;;
49590;SDS011;35496;-21.974;-46.800;2022-07-23T09:15:50;18.60;;;12.75;;
49590;SDS011;35496;-21.974;-46.800;2022-07-23T09:18:16;16.85;;;12.25;;
49590;SDS011;35496;-21.974;-46.800;2022-07-23T09:20:46;24.85;;;13.07;;
49590;SDS011;35496;-21.974;-46.800;2022-07-23T09:23:12;17.75;;;12.07;;
49590;SDS011;35496;-21.974;-46.800;2022-07-23T09:25:38;19.13;;;12.82;;
49590;SDS011;35496;-21.974;-46.800;2022-07-23T09:28:04;19.60;;;13.43;;
49590;SDS011;35496;-21.974;-46.800;2022-07-23T09:30:32;19.45;;;13.82;;
49590;SDS011;35496;-21.974;-46.800;2022-07-23T09:33:14;24.75;;;16.48;;
49590;SDS011;35496;-21.974;-46.800;2022-07-23T09:35:51;19.17;;;14.55;;
49590;SDS011;35496;-21.974;-46.800;2022-07-23T09:38:18;17.45;;;13.13;;
49590;SDS011;35496;-21.974;-46.800;2022-07-23T09:40:45;24.92;;;14.45;;
49590;SDS011;35496;-21.974;-46.800;2022-07-23T09:43:12;24.60;;;16.00;;
49590;SDS011;35496;-21.974;-46.800;2022-07-23T09:45:38;21.90;;;15.50;;
49590;SDS011;35496;-21.974;-46.800;2022-07-23T09:48:15;21.02;;;13.45;;
49590;SDS011;35496;-21.974;-46.800;2022-07-23T09:50:42;19.75;;;13.40;;
49590;SDS011;35496;-21.974;-46.800;2022-07-23T09:53:08;22.60;;;13.70;;
49590;SDS011;35496;-21.974;-46.800;2022-07-23T09:55:35;19.08;;;12.45;;
49590;SDS011;35496;-21.974;-46.800;2022-07-23T09:58:03;28.70;;;12.15;;
49590;SDS011;35496;-21.974;-46.800;2022-07-23T10:00:30;17.83;;;12.52;;
49590;SDS011;35496;-21.974;-46.800;2022-07-23T10:02:57;19.20;;;13.27;;
49590;SDS011;35496;-21.974;-46.800;2022-07-23T10:05:24;22.02;;;14.82;;
49590;SDS011;35496;-21.974;-46.800;2022-07-23T10:07:50;24.38;;;15.40;;
49590;SDS011;35496;-21.974;-46.800;2022-07-23T10:10:16;32.47;;;16.13;;
49590;SDS011;35496;-21.974;-46.800;2022-07-23T10:12:43;27.85;;;13.82;;
49590;SDS011;35496;-21.974;-46.800;2022-07-23T10:15:09;22.58;;;16.60;;
49590;SDS011;35496;-21.974;-46.800;2022-07-23T10:17:36;25.52;;;16.02;;
49590;SDS011;35496;-21.974;-46.800;2022-07-23T10:20:03;32.30;;;17.48;;
49590;SDS011;35496;-21.974;-46.800;2022-07-23T10:22:40;26.52;;;15.98;;
49590;SDS011;35496;-21.974;-46.800;2022-07-23T10:25:49;29.13;;;15.02;;
49590;SDS011;35496;-21.974;-46.800;2022-07-23T10:38:20;19.83;;;11.25;;
49590;SDS011;35496;-21.974;-46.800;2022-07-23T10:41:08;13.07;;;10.77;;
49590;SDS011;35496;-21.974;-46.800;2022-07-23T10:43:33;20.52;;;10.05;;
49590;SDS011;35496;-21.974;-46.800;2022-07-23T10:48:44;11.98;;;9.18;;
49590;SDS011;35496;-21.974;-46.800;2022-07-23T10:53:53;18.63;;;12.30;;
49590;SDS011;35496;-21.974;-46.800;2022-07-23T10:59:04;15.40;;;9.57;;
49590;SDS011;35496;-21.974;-46.800;2022-07-23T11:01:31;15.88;;;9.43;;
49590;SDS011;35496;-21.974;-46.800;2022-07-23T11:03:57;11.45;;;8.55;;
49590;SDS011;35496;-21.974;-46.800;2022-07-23T11:06:43;17.80;;;9.38;;
49590;SDS011;35496;-21.974;-46.800;2022-07-23T11:09:29;12.00;;;8.90;;
49590;SDS011;35496;-21.974;-46.800;2022-07-23T11:17:28;12.13;;;8.40;;
49590;SDS011;35496;-21.974;-46.800;2022-07-23T11:22:38;21.73;;;9.00;;
49590;SDS011;35496;-21.974;-46.800;2022-07-23T11:25:04;10.55;;;7.28;;
49590;SDS011;35496;-21.974;-46.800;2022-07-23T11:27:44;17.17;;;8.43;;
49590;SDS011;35496;-21.974;-46.800;2022-07-23T11:30:11;17.98;;;8.10;;
49590;SDS011;35496;-21.974;-46.800;2022-07-23T11:35:35;12.85;;;7.00;;
49590;SDS011;35496;-21.974;-46.800;2022-07-23T11:38:13;17.15;;;7.85;;
49590;SDS011;35496;-21.974;-46.800;2022-07-23T11:40:39;15.77;;;8.40;;
49590;SDS011;35496;-21.974;-46.800;2022-07-23T11:43:09;24.00;;;7.40;;
49590;SDS011;35496;-21.974;-46.800;2022-07-23T11:45:36;9.10;;;6.88;;
49590;SDS011;35496;-21.974;-46.800;2022-07-23T11:48:03;24.13;;;7.82;;
49590;SDS011;35496;-21.974;-46.800;2022-07-23T11:50:30;13.77;;;8.00;;
49590;SDS011;35496;-21.974;-46.800;2022-07-23T11:52:57;13.52;;;7.22;;
49590;SDS011;35496;-21.974;-46.800;2022-07-23T11:55:23;14.10;;;8.73;;
49590;SDS011;35496;-21.974;-46.800;2022-07-23T11:57:50;14.98;;;7.70;;
49590;SDS011;35496;-21.974;-46.800;2022-07-23T12:00:24;12.77;;;7.93;;
49590;SDS011;35496;-21.974;-46.800;2022-07-23T12:02:51;15.63;;;6.90;;
49590;SDS011;35496;-21.974;-46.800;2022-07-23T12:05:22;21.92;;;6.53;;
49590;SDS011;35496;-21.974;-46.800;2022-07-23T12:07:49;13.50;;;6.47;;
49590;SDS011;35496;-21.974;-46.800;2022-07-23T12:10:23;12.32;;;6.78;;
49590;SDS011;35496;-21.974;-46.800;2022-07-23T12:12:51;12.05;;;7.50;;
49590;SDS011;35496;-21.974;-46.800;2022-07-23T12:15:22;13.55;;;7.57;;
49590;SDS011;35496;-21.974;-46.800;2022-07-23T12:17:49;11.05;;;7.82;;
49590;SDS011;35496;-21.974;-46.800;2022-07-23T12:20:17;15.48;;;7.25;;
49590;SDS011;35496;-21.974;-46.800;2022-07-23T12:22:45;9.63;;;6.60;;
49590;SDS011;35496;-21.974;-46.800;2022-07-23T12:25:19;10.80;;;7.63;;
49590;SDS011;35496;-21.974;-46.800;2022-07-23T12:27:46;14.40;;;6.85;;
49590;SDS011;35496;-21.974;-46.800;2022-07-23T12:30:24;17.10;;;7.05;;
49590;SDS011;35496;-21.974;-46.800;2022-07-23T12:32:52;9.45;;;5.80;;
49590;SDS011;35496;-21.974;-46.800;2022-07-23T12:35:19;18.15;;;6.22;;
49590;SDS011;35496;-21.974;-46.800;2022-07-23T12:37:45;10.10;;;5.47;;
49590;SDS011;35496;-21.974;-46.800;2022-07-23T12:43:12;12.68;;;5.90;;
49590;SDS011;35496;-21.974;-46.800;2022-07-23T12:45:48;11.20;;;6.28;;
49590;SDS011;35496;-21.974;-46.800;2022-07-23T12:48:16;19.80;;;6.85;;
49590;SDS011;35496;-21.974;-46.800;2022-07-23T12:50:44;10.30;;;6.10;;
49590;SDS011;35496;-21.974;-46.800;2022-07-23T12:53:18;24.98;;;7.05;;
49590;SDS011;35496;-21.974;-46.800;2022-07-23T12:55:45;10.57;;;4.93;;
49590;SDS011;35496;-21.974;-46.800;2022-07-23T12:58:13;7.10;;;4.00;;
49590;SDS011;35496;-21.974;-46.800;2022-07-23T13:00:55;6.70;;;4.03;;
49590;SDS011;35496;-21.974;-46.800;2022-07-23T13:03:25;6.25;;;4.05;;
49590;SDS011;35496;-21.974;-46.800;2022-07-23T13:05:51;4.65;;;3.60;;
49590;SDS011;35496;-21.974;-46.800;2022-07-23T13:08:17;8.20;;;4.43;;
49590;SDS011;35496;-21.974;-46.800;2022-07-23T13:10:43;14.85;;;4.60;;
49590;SDS011;35496;-21.974;-46.800;2022-07-23T13:13:13;5.95;;;4.28;;
49590;SDS011;35496;-21.974;-46.800;2022-07-23T13:15:40;6.65;;;3.58;;
49590;SDS011;35496;-21.974;-46.800;2022-07-23T13:18:06;8.73;;;3.97;;
49590;SDS011;35496;-21.974;-46.800;2022-07-23T13:20:32;5.78;;;3.28;;
49590;SDS011;35496;-21.974;-46.800;2022-07-23T13:23:00;4.22;;;3.28;;
49590;SDS011;35496;-21.974;-46.800;2022-07-23T13:25:26;3.55;;;3.00;;
49590;SDS011;35496;-21.974;-46.800;2022-07-23T13:27:52;7.15;;;2.80;;
49590;SDS011;35496;-21.974;-46.800;2022-07-23T13:30:18;5.65;;;2.70;;
49590;SDS011;35496;-21.974;-46.800;2022-07-23T13:32:44;12.02;;;2.55;;
49590;SDS011;35496;-21.974;-46.800;2022-07-23T13:35:11;7.45;;;3.33;;
49590;SDS011;35496;-21.974;-46.800;2022-07-23T13:37:37;7.82;;;2.47;;
49590;SDS011;35496;-21.974;-46.800;2022-07-23T13:40:03;6.22;;;3.38;;
49590;SDS011;35496;-21.974;-46.800;2022-07-23T13:42:30;5.50;;;4.85;;
49590;SDS011;35496;-21.974;-46.800;2022-07-23T13:44:56;4.15;;;3.33;;
49590;SDS011;35496;-21.974;-46.800;2022-07-23T13:47:22;9.68;;;8.48;;
49590;SDS011;35496;-21.974;-46.800;2022-07-23T13:49:48;11.77;;;5.20;;
49590;SDS011;35496;-21.974;-46.800;2022-07-23T13:52:14;7.20;;;5.53;;
49590;SDS011;35496;-21.974;-46.800;2022-07-23T13:54:40;10.02;;;5.63;;
49590;SDS011;35496;-21.974;-46.800;2022-07-23T13:57:06;7.57;;;4.43;;
49590;SDS011;35496;-21.974;-46.800;2022-07-23T13:59:34;6.53;;;2.95;;
49590;SDS011;35496;-21.974;-46.800;2022-07-23T14:02:05;6.80;;;4.32;;
49590;SDS011;35496;-21.974;-46.800;2022-07-23T14:04:31;7.47;;;5.28;;
49590;SDS011;35496;-21.974;-46.800;2022-07-23T14:06:57;9.93;;;5.65;;
49590;SDS011;35496;-21.974;-46.800;2022-07-23T14:09:24;6.80;;;6.13;;
49590;SDS011;35496;-21.974;-46.800;2022-07-23T14:11:50;6.75;;;5.53;;
49590;SDS011;35496;-21.974;-46.800;2022-07-23T14:14:16;8.15;;;4.22;;
49590;SDS011;35496;-21.974;-46.800;2022-07-23T14:16:43;5.57;;;3.40;;
49590;SDS011;35496;-21.974;-46.800;2022-07-23T14:19:09;4.90;;;3.40;;
49590;SDS011;35496;-21.974;-46.800;2022-07-23T14:21:36;2.50;;;2.30;;
49590;SDS011;35496;-21.974;-46.800;2022-07-23T14:24:03;4.65;;;3.10;;
49590;SDS011;35496;-21.974;-46.800;2022-07-23T14:26:29;4.63;;;3.15;;
49590;SDS011;35496;-21.974;-46.800;2022-07-23T14:28:55;4.00;;;2.95;;
49590;SDS011;35496;-21.974;-46.800;2022-07-23T14:31:22;4.38;;;2.38;;
49590;SDS011;35496;-21.974;-46.800;2022-07-23T14:33:48;5.18;;;3.03;;
49590;SDS011;35496;-21.974;-46.800;2022-07-23T14:36:14;3.75;;;3.22;;
49590;SDS011;35496;-21.974;-46.800;2022-07-23T14:38:41;2.38;;;2.17;;